createdAt,value
2022-12-11T00:09:03.671Z,38.90
2022-12-11T00:19:05.679Z,42.93
2022-12-11T00:29:08.908Z,40.35
2022-12-11T00:39:10.291Z,37.07
2022-12-11T00:49:12.147Z,29.70
2022-12-11T00:59:13.528Z,47.22
2022-12-11T01:09:33.321Z,40.93
2022-12-11T01:19:34.695Z,48.83
2022-12-11T01:29:36.046Z,47.30
2022-12-11T01:39:38.703Z,30.73
2022-12-11T01:49:41.554Z,37.63
2022-12-11T01:59:46.233Z,30.13
2022-12-11T02:09:48.648Z,28.08
2022-12-11T02:19:57.873Z,34.17
2022-12-11T02:30:11.731Z,30.87
2022-12-11T02:40:17.800Z,33.67
2022-12-11T02:50:21.597Z,31.43
2022-12-11T03:00:23.298Z,37.47
2022-12-11T03:10:25.315Z,41.75
2022-12-11T03:20:43.647Z,40.42
2022-12-11T03:30:48.527Z,39.03
2022-12-11T03:40:54.029Z,44.27
2022-12-11T03:50:55.967Z,39.63
2022-12-11T04:00:57.418Z,38.73
2022-12-11T04:11:17.205Z,31.47
2022-12-11T04:21:39.670Z,33.95
2022-12-11T04:31:41.338Z,39.10
2022-12-11T04:41:42.787Z,45.53
2022-12-11T04:51:44.158Z,41.03
2022-12-11T05:01:45.878Z,38.83
2022-12-11T05:11:47.293Z,38.87
2022-12-11T05:21:48.663Z,33.83
2022-12-11T05:31:49.983Z,37.10
2022-12-11T05:41:51.338Z,39.97
2022-12-11T05:51:52.682Z,34.37
2022-12-11T06:01:54.125Z,34.35
2022-12-11T06:11:55.548Z,33.67
2022-12-11T06:21:56.910Z,35.80
2022-12-11T06:31:58.294Z,37.25
2022-12-11T06:41:59.690Z,44.53
2022-12-11T06:52:01.026Z,40.20
2022-12-11T07:02:02.799Z,46.27
2022-12-11T07:12:04.734Z,40.40
2022-12-11T07:22:06.242Z,37.07
2022-12-11T07:32:07.648Z,42.23
2022-12-11T07:42:09.147Z,42.45
2022-12-11T07:52:10.804Z,33.20
2022-12-11T08:02:12.308Z,37.77
2022-12-11T08:12:13.720Z,38.38
2022-12-11T08:22:15.082Z,33.10
2022-12-11T08:32:16.911Z,34.63
2022-12-11T08:42:18.254Z,43.37
2022-12-11T08:52:19.598Z,31.45
2022-12-11T09:02:21.020Z,28.13
2022-12-11T09:12:22.985Z,26.17
2022-12-11T09:22:24.340Z,28.88
2022-12-11T09:32:25.708Z,30.93
2022-12-11T09:42:36.068Z,38.70
2022-12-11T09:52:46.375Z,29.27
2022-12-11T10:03:02.917Z,25.90
2022-12-11T10:13:20.920Z,23.43
2022-12-11T10:23:36.561Z,27.70
2022-12-11T10:33:56.765Z,25.25
2022-12-11T10:43:58.192Z,27.83
2022-12-11T10:54:39.505Z,23.63
2022-12-11T11:04:44.701Z,31.55
2022-12-11T11:14:46.239Z,21.63
2022-12-11T11:24:58.356Z,23.53
2022-12-11T11:35:26.948Z,21.73
2022-12-11T11:45:53.852Z,40.85
2022-12-11T11:56:23.440Z,38.10
2022-12-11T12:07:07.085Z,37.30
2022-12-11T12:17:08.443Z,30.67
2022-12-11T12:27:52.187Z,29.60
2022-12-11T12:38:05.482Z,27.20
2022-12-11T12:48:08.999Z,32.90
2022-12-11T12:58:29.350Z,30.27
2022-12-11T13:08:40.957Z,31.57
2022-12-11T13:18:45.523Z,32.55
2022-12-11T13:28:50.953Z,32.95
2022-12-11T13:38:56.804Z,32.70
2022-12-11T13:49:01.806Z,27.27
2022-12-11T13:59:03.374Z,28.65
2022-12-11T14:09:08.098Z,31.80
2022-12-11T14:19:10.884Z,29.87
2022-12-11T14:29:28.028Z,30.45
2022-12-11T14:39:44.523Z,27.93
2022-12-11T14:50:03.785Z,29.47
2022-12-11T15:00:06.083Z,35.28
2022-12-11T15:10:20.836Z,29.13
2022-12-11T15:20:27.401Z,29.43
2022-12-11T15:30:34.744Z,25.67
2022-12-11T15:40:38.498Z,28.77
2022-12-11T15:50:39.936Z,24.23
2022-12-11T16:00:41.338Z,27.13
2022-12-11T16:10:44.145Z,28.17
2022-12-11T16:20:46.234Z,27.87
2022-12-11T16:30:48.108Z,25.17
2022-12-11T16:40:49.472Z,29.55
2022-12-11T16:50:53.666Z,28.48
2022-12-11T17:01:02.003Z,31.07
2022-12-11T17:11:12.882Z,27.20
2022-12-11T17:21:16.538Z,23.05
2022-12-11T17:31:19.344Z,22.90
2022-12-11T17:41:21.764Z,23.73
2022-12-11T17:51:24.434Z,21.08
2022-12-11T18:01:26.152Z,22.27
2022-12-11T18:11:27.553Z,24.93
2022-12-11T18:21:31.937Z,22.33
2022-12-11T18:31:36.379Z,19.58
2022-12-11T18:41:42.029Z,19.83
2022-12-11T18:51:43.514Z,23.17
2022-12-11T19:01:44.953Z,20.17
2022-12-11T19:11:47.380Z,24.50
2022-12-11T19:21:49.941Z,23.87
2022-12-11T19:31:51.628Z,23.52
2022-12-11T19:41:53.042Z,24.53
2022-12-11T19:51:54.475Z,26.40
2022-12-11T20:01:55.874Z,21.10
2022-12-11T20:11:57.415Z,25.23
2022-12-11T20:21:58.764Z,20.80
2022-12-11T20:32:00.375Z,24.97
2022-12-11T20:42:04.664Z,14.02
2022-12-11T20:52:06.623Z,22.73
2022-12-11T21:02:09.627Z,26.43
2022-12-11T21:12:11.009Z,19.42
2022-12-11T21:22:12.653Z,26.87
2022-12-11T21:32:14.116Z,27.73
2022-12-11T21:42:15.848Z,26.77
2022-12-11T21:52:17.230Z,36.08
2022-12-11T22:02:18.728Z,25.83
2022-12-11T22:12:25.958Z,26.77
2022-12-11T22:22:27.322Z,32.33
2022-12-11T22:32:28.712Z,27.37
2022-12-11T22:42:30.103Z,18.53
2022-12-11T22:52:31.611Z,29.92
2022-12-11T23:02:32.982Z,27.47
2022-12-11T23:12:34.902Z,24.33
2022-12-11T23:22:36.327Z,30.83
2022-12-11T23:32:38.183Z,26.33
2022-12-11T23:42:40.544Z,30.37
2022-12-11T23:52:42.069Z,28.43
